Time;durP1;ratioP1;P1;durP2;ratioP2;P2;SDS_P1;SDS_P2;PMS_P1;PMS_P2;Temp;Humidity;BMP_temperature;BMP_pressure;BME280_temperature;BME280_humidity;BME280_pressure;Samples;Min_cycle;Max_cycle;Signal;HPM_P1;HPM_P2
2021/12/05 00:20:38;;;;;;;2.20;0.60;;;8.10;77.00;;;;;;5111260;28;20068;-73
2021/12/05 00:23:11;;;;;;;3.22;0.50;;;8.10;77.00;;;;;;5111269;28;20024;-73
2021/12/05 00:25:38;;;;;;;1.80;0.60;;;8.10;77.30;;;;;;5111576;28;20503;-73
2021/12/05 00:39:32;;;;;;;1.40;0.63;;;8.00;77.30;;;;;;5112262;28;20078;-73
2021/12/05 01:13:45;;;;;;;2.25;0.40;;;7.90;77.80;;;;;;5076129;28;20024;-70
2021/12/05 01:16:18;;;;;;;1.73;0.40;;;7.90;78.00;;;;;;5073124;28;20183;-71
2021/12/05 01:18:46;;;;;;;2.30;0.40;;;7.80;78.00;;;;;;5073787;28;20389;-70
2021/12/05 01:21:15;;;;;;;2.08;0.40;;;7.80;78.00;;;;;;5075762;28;20052;-70
2021/12/05 01:26:48;;;;;;;1.80;0.40;;;7.90;78.30;;;;;;5076615;28;20095;-71
2021/12/05 01:32:06;;;;;;;2.15;0.40;;;7.80;78.20;;;;;;5110253;28;20055;-71
2021/12/05 02:15:50;;;;;;;0.90;0.35;;;7.60;78.60;;;;;;4990931;28;20499;-71
2021/12/05 02:37:14;;;;;;;3.13;0.47;;;7.70;78.60;;;;;;5006089;28;20176;-71
2021/12/05 02:42:24;;;;;;;2.65;0.40;;;7.70;79.30;;;;;;5027803;28;20494;-71
2021/12/05 02:44:50;;;;;;;1.63;0.25;;;7.60;79.00;;;;;;5025943;28;20127;-71
2021/12/05 02:47:26;;;;;;;1.70;0.45;;;7.60;79.20;;;;;;5027328;28;20030;-71
2021/12/05 02:49:57;;;;;;;1.17;0.13;;;7.50;79.40;;;;;;5027308;28;20926;-71
2021/12/05 02:52:29;;;;;;;2.75;0.40;;;7.60;79.90;;;;;;5084288;28;20403;-71
2021/12/05 02:55:08;;;;;;;1.10;0.30;;;7.60;80.00;;;;;;5109492;28;20465;-69
2021/12/05 03:00:18;;;;;;;1.23;0.30;;;7.60;79.90;;;;;;5111995;28;20031;-70
2021/12/05 03:02:47;;;;;;;1.80;0.40;;;7.60;79.80;;;;;;5109078;28;20106;-70
2021/12/05 03:05:18;;;;;;;2.58;0.45;;;7.60;79.90;;;;;;5108359;28;20483;-70
2021/12/05 03:07:47;;;;;;;4.53;0.40;;;7.60;80.00;;;;;;5093636;28;20518;-70
2021/12/05 03:10:16;;;;;;;1.92;0.50;;;7.60;80.40;;;;;;5108544;28;20016;-71
2021/12/05 03:12:44;;;;;;;3.22;0.38;;;7.60;80.10;;;;;;5094453;28;20066;-69
2021/12/05 03:15:14;;;;;;;2.25;0.35;;;7.60;80.20;;;;;;5109801;28;20059;-68
2021/12/05 03:17:41;;;;;;;2.00;0.40;;;7.60;80.20;;;;;;5108390;28;20016;-68
2021/12/05 03:20:08;;;;;;;2.53;0.50;;;7.70;80.40;;;;;;5109839;28;20070;-70
2021/12/05 03:22:34;;;;;;;2.35;0.60;;;7.70;80.40;;;;;;5108210;28;20024;-68
2021/12/05 03:25:00;;;;;;;2.60;0.50;;;7.70;80.10;;;;;;5108497;28;20031;-70
2021/12/05 03:27:26;;;;;;;4.97;0.73;;;7.60;79.80;;;;;;5111845;28;20059;-70
2021/12/05 03:29:52;;;;;;;5.00;0.52;;;7.60;79.80;;;;;;5108446;28;20034;-71
2021/12/05 03:32:18;;;;;;;1.33;0.50;;;7.60;80.30;;;;;;5108085;28;20407;-71
2021/12/05 03:34:43;;;;;;;2.10;0.30;;;7.60;80.00;;;;;;5108429;28;20020;-71
2021/12/05 03:37:10;;;;;;;2.22;0.40;;;7.60;80.50;;;;;;5110185;28;20499;-71
2021/12/05 03:39:37;;;;;;;2.53;0.28;;;7.60;80.20;;;;;;5095300;28;20023;-70
2021/12/05 03:42:04;;;;;;;1.10;0.40;;;7.60;80.40;;;;;;5109173;28;20032;-71
2021/12/05 03:44:32;;;;;;;1.35;0.30;;;7.60;80.50;;;;;;5095099;28;20044;-70
2021/12/05 03:46:59;;;;;;;0.55;0.28;;;7.70;80.40;;;;;;5094372;28;20054;-70
2021/12/05 03:49:28;;;;;;;1.65;0.30;;;7.60;80.20;;;;;;5107708;28;20458;-71
2021/12/05 03:51:58;;;;;;;1.88;0.40;;;7.60;80.50;;;;;;5112563;28;20085;-70
2021/12/05 03:54:24;;;;;;;2.58;0.30;;;7.60;80.20;;;;;;5111515;28;20580;-70
2021/12/05 03:56:50;;;;;;;2.67;0.43;;;7.60;80.50;;;;;;5107647;28;20019;-71
2021/12/05 03:59:17;;;;;;;2.50;0.32;;;7.50;80.00;;;;;;5107722;28;20399;-71
2021/12/05 04:01:43;;;;;;;2.03;0.40;;;7.40;80.30;;;;;;5108456;28;20030;-70
2021/12/05 04:04:11;;;;;;;1.40;0.28;;;7.30;80.50;;;;;;5108065;28;20027;-71
2021/12/05 04:06:39;;;;;;;1.30;0.35;;;7.30;80.50;;;;;;5110430;28;20032;-71
2021/12/05 04:09:09;;;;;;;1.85;0.60;;;7.30;80.40;;;;;;5109177;28;20015;-72
2021/12/05 04:11:40;;;;;;;2.05;0.40;;;7.30;80.80;;;;;;5107451;28;20019;-71
2021/12/05 04:14:09;;;;;;;0.88;0.40;;;7.30;80.50;;;;;;5094395;28;20015;-71
2021/12/05 04:16:36;;;;;;;1.42;0.38;;;7.30;80.80;;;;;;5107714;28;20028;-71
2021/12/05 04:19:03;;;;;;;0.80;0.30;;;7.40;81.70;;;;;;5107451;28;20026;-71
2021/12/05 04:21:31;;;;;;;1.40;0.30;;;7.30;80.60;;;;;;5111154;28;20088;-73
2021/12/05 04:23:58;;;;;;;1.92;0.50;;;7.30;80.40;;;;;;5109806;28;20039;-71
2021/12/05 04:26:24;;;;;;;2.30;0.50;;;7.30;80.60;;;;;;5108888;28;20089;-70
2021/12/05 04:28:51;;;;;;;1.10;0.40;;;7.20;80.20;;;;;;5097376;28;20034;-70
2021/12/05 04:31:20;;;;;;;1.45;0.30;;;7.10;80.50;;;;;;5111912;28;20530;-70
2021/12/05 04:33:46;;;;;;;1.77;0.35;;;7.20;80.80;;;;;;5113466;28;20024;-70
2021/12/05 04:36:12;;;;;;;1.13;0.30;;;7.20;80.80;;;;;;5113064;28;20047;-70
2021/12/05 04:38:38;;;;;;;1.20;0.30;;;7.10;80.70;;;;;;5113054;28;20125;-70
2021/12/05 04:41:04;;;;;;;1.85;0.38;;;7.20;80.80;;;;;;5110973;28;20503;-70
2021/12/05 04:43:38;;;;;;;2.47;0.47;;;7.10;80.70;;;;;;5111087;28;20472;-70
2021/12/05 04:46:06;;;;;;;2.03;0.28;;;7.10;80.60;;;;;;5095937;28;20102;-68
2021/12/05 04:48:32;;;;;;;2.30;0.47;;;7.10;80.70;;;;;;5114098;28;20030;-70
2021/12/05 04:50:59;;;;;;;3.00;0.40;;;7.00;81.00;;;;;;5111573;28;20028;-70
2021/12/05 04:53:27;;;;;;;1.50;0.30;;;7.10;80.90;;;;;;5113549;27;20099;-71
2021/12/05 04:55:53;;;;;;;2.88;0.40;;;7.00;80.70;;;;;;5110745;28;20039;-70
2021/12/05 04:58:19;;;;;;;1.23;0.30;;;7.00;81.70;;;;;;5111011;28;20024;-71
2021/12/05 05:00:45;;;;;;;2.28;0.43;;;7.00;80.70;;;;;;5113528;27;20043;-69
2021/12/05 05:03:12;;;;;;;2.00;0.22;;;7.00;81.00;;;;;;5112655;28;20019;-69
2021/12/05 05:05:43;;;;;;;1.38;0.32;;;7.00;80.90;;;;;;5109959;28;20028;-68
2021/12/05 05:08:08;;;;;;;1.88;0.30;;;7.00;81.00;;;;;;5110138;28;20019;-70
2021/12/05 05:10:34;;;;;;;2.40;0.50;;;7.00;81.10;;;;;;5110210;28;20410;-70
2021/12/05 05:13:00;;;;;;;2.72;0.55;;;7.00;81.10;;;;;;5110573;28;20392;-71
2021/12/05 05:15:29;;;;;;;1.67;0.40;;;7.00;81.20;;;;;;5109975;28;20472;-71
2021/12/05 05:17:55;;;;;;;1.05;0.40;;;7.00;81.00;;;;;;5110926;28;20080;-70
2021/12/05 05:29:24;;;;;;;3.42;0.57;;;7.00;81.10;;;;;;5050425;28;20033;-70
2021/12/05 05:39:23;;;;;;;1.13;0.30;;;7.20;81.30;;;;;;5035420;28;20048;-70
2021/12/05 05:51:59;;;;;;;1.85;0.50;;;7.40;81.40;;;;;;5040224;28;20037;-70
2021/12/05 05:54:25;;;;;;;6.50;0.80;;;7.40;81.30;;;;;;5050811;28;20068;-69
2021/12/05 05:56:56;;;;;;;5.63;0.88;;;7.40;81.10;;;;;;5049704;28;20528;-70
2021/12/05 05:59:27;;;;;;;1.77;0.60;;;7.30;81.30;;;;;;5049791;28;20033;-70
2021/12/05 06:04:19;;;;;;;2.50;0.63;;;7.40;81.60;;;;;;5051060;28;20549;-70
2021/12/05 06:06:45;;;;;;;3.95;0.60;;;7.50;81.30;;;;;;5109858;28;20024;-70
2021/12/05 06:09:12;;;;;;;1.92;0.65;;;7.40;80.90;;;;;;5111357;28;20027;-69
2021/12/05 06:11:38;;;;;;;4.03;0.60;;;7.40;80.90;;;;;;5109525;28;20475;-68
2021/12/05 06:14:03;;;;;;;4.10;1.00;;;7.40;80.70;;;;;;5108767;28;20396;-71
2021/12/05 06:16:30;;;;;;;2.80;0.60;;;7.40;80.90;;;;;;5109488;28;20035;-71
2021/12/05 06:18:56;;;;;;;4.43;0.55;;;7.40;80.90;;;;;;5109952;28;20070;-70
2021/12/05 06:21:22;;;;;;;3.22;0.70;;;7.30;81.10;;;;;;5112255;28;20430;-70
2021/12/05 06:23:48;;;;;;;3.00;0.60;;;7.40;81.10;;;;;;5109092;28;20023;-70
2021/12/05 06:26:20;;;;;;;4.15;0.77;;;7.40;81.20;;;;;;5109091;28;20046;-70
2021/12/05 06:28:56;;;;;;;3.85;0.75;;;7.40;81.30;;;;;;5109181;28;20111;-73
2021/12/05 06:39:59;;;;;;;2.25;0.40;;;7.50;81.30;;;;;;5107988;28;20075;-73
2021/12/05 06:47:54;;;;;;;3.80;0.73;;;7.40;81.10;;;;;;5108841;28;20046;-69
2021/12/05 06:50:19;;;;;;;2.03;0.73;;;7.40;81.00;;;;;;5108078;28;20031;-69
2021/12/05 06:52:45;;;;;;;3.45;0.63;;;7.40;81.10;;;;;;5111739;27;20076;-69
2021/12/05 06:55:13;;;;;;;2.67;0.70;;;7.40;81.60;;;;;;5108239;28;20067;-69
2021/12/05 06:57:40;;;;;;;3.78;0.47;;;7.40;81.80;;;;;;5111030;28;20021;-69
2021/12/05 07:00:10;;;;;;;4.28;0.70;;;7.40;81.80;;;;;;5109970;28;20031;-69
2021/12/05 07:02:35;;;;;;;3.40;0.70;;;7.40;81.60;;;;;;5109289;27;20417;-69
2021/12/05 07:07:34;;;;;;;3.35;0.80;;;7.40;81.70;;;;;;5108788;28;20019;-70
2021/12/05 07:10:00;;;;;;;4.63;1.00;;;7.40;81.50;;;;;;5092948;28;20077;-70
2021/12/05 07:15:06;;;;;;;2.97;1.38;;;7.30;81.20;;;;;;5108986;28;20019;-70
2021/12/05 07:20:22;;;;;;;4.63;0.60;;;7.30;81.90;;;;;;5108028;28;20547;-70
2021/12/05 07:25:24;;;;;;;3.90;0.90;;;7.30;81.80;;;;;;5108268;28;20027;-71
2021/12/05 07:44:29;;;;;;;3.95;0.80;;;7.20;81.90;;;;;;5048414;28;20045;-71
2021/12/05 07:46:55;;;;;;;5.20;0.85;;;7.20;81.90;;;;;;5047595;28;20037;-71
2021/12/05 07:49:21;;;;;;;4.65;0.95;;;7.20;82.20;;;;;;5048142;28;20045;-70
2021/12/05 07:51:48;;;;;;;4.13;1.05;;;7.20;82.00;;;;;;5050292;28;20028;-71
2021/12/05 07:54:36;;;;;;;5.43;1.00;;;7.20;81.80;;;;;;5047564;28;20041;-70
2021/12/05 08:00:04;;;;;;;3.75;0.90;;;7.20;81.80;;;;;;5047944;28;20071;-71
2021/12/05 08:16:15;;;;;;;3.70;0.70;;;7.50;82.10;;;;;;5063445;28;20104;-70
2021/12/05 08:18:41;;;;;;;2.97;0.75;;;7.70;82.10;;;;;;5041021;28;20123;-70
2021/12/05 08:21:08;;;;;;;4.57;0.90;;;7.70;81.70;;;;;;5118521;27;20073;-70
2021/12/05 08:23:34;;;;;;;4.07;0.95;;;7.70;81.50;;;;;;5114240;27;20039;-70
2021/12/05 08:26:15;;;;;;;3.60;0.90;;;7.70;81.90;;;;;;5115243;27;20522;-70
2021/12/05 08:28:58;;;;;;;2.60;0.73;;;7.80;82.10;;;;;;5121825;27;20464;-70
2021/12/05 09:08:53;;;;;;;4.95;1.20;;;9.40;77.00;;;;;;5106629;28;20034;-67
2021/12/05 10:15:34;;;;;;;;;;;14.20;68.00;;;;;;5122735;27;20488;-69
2021/12/05 10:26:57;;;;;;;4.72;1.20;;;15.10;65.80;;;;;;5114158;27;20093;-70
2021/12/05 10:38:07;;;;;;;4.13;1.20;;;14.40;62.20;;;;;;5114271;27;20024;-69
2021/12/05 10:41:18;;;;;;;5.30;1.20;;;13.90;61.30;;;;;;5100013;28;20543;-69
2021/12/05 10:43:44;;;;;;;6.13;1.20;;;14.10;65.00;;;;;;5106640;27;20036;-70
2021/12/05 10:46:16;;;;;;;4.95;1.27;;;14.10;63.30;;;;;;5121903;27;20123;-70
2021/12/05 10:48:47;;;;;;;3.28;1.05;;;13.90;63.20;;;;;;5115039;27;20068;-69
2021/12/05 10:51:25;;;;;;;3.17;0.80;;;14.00;64.70;;;;;;5120498;27;20495;-69
2021/12/05 10:54:02;;;;;;;4.80;0.68;;;13.70;63.90;;;;;;5108844;28;20079;-69
2021/12/05 10:56:29;;;;;;;5.57;1.20;;;13.30;63.80;;;;;;5108580;27;20115;-69
2021/12/05 10:59:13;;;;;;;4.28;1.13;;;13.00;64.10;;;;;;5115451;27;20035;-69
2021/12/05 11:01:43;;;;;;;3.15;0.90;;;13.20;66.10;;;;;;5108760;27;20402;-69
2021/12/05 11:04:35;;;;;;;7.05;1.15;;;13.30;66.70;;;;;;5121664;27;20020;-70
2021/12/05 11:07:21;;;;;;;4.32;0.90;;;13.60;65.40;;;;;;5108345;27;20043;-70
2021/12/05 11:09:55;;;;;;;3.92;1.85;;;14.10;65.40;;;;;;5123047;27;20050;-70
2021/12/05 11:12:27;;;;;;;4.75;1.10;;;14.50;64.40;;;;;;5114372;28;20403;-70
2021/12/05 11:14:56;;;;;;;3.27;0.90;;;14.60;63.40;;;;;;5103514;28;20107;-70
2021/12/05 11:17:27;;;;;;;5.85;1.20;;;14.60;62.30;;;;;;5131295;27;20285;-69
2021/12/05 11:19:54;;;;;;;3.20;1.08;;;14.90;62.40;;;;;;5100654;28;20035;-69
2021/12/05 11:22:26;;;;;;;3.25;1.08;;;15.60;62.50;;;;;;5108186;28;20046;-70
2021/12/05 11:25:02;;;;;;;6.75;1.23;;;16.00;61.00;;;;;;5113667;28;20425;-70
2021/12/05 11:27:28;;;;;;;4.28;1.02;;;15.90;59.40;;;;;;5139704;27;20019;-71
2021/12/05 11:30:13;;;;;;;3.50;1.05;;;15.70;60.70;;;;;;5108636;28;20507;-68
2021/12/05 11:32:58;;;;;;;2.20;0.68;;;16.30;62.40;;;;;;5117542;28;20115;-69
2021/12/05 11:35:37;;;;;;;3.35;0.85;;;16.40;59.90;;;;;;5114032;28;20019;-68
2021/12/05 11:38:06;;;;;;;4.03;1.02;;;15.50;56.90;;;;;;5116827;27;20398;-69
2021/12/05 11:40:53;;;;;;;3.58;0.60;;;15.10;58.30;;;;;;5124510;27;20032;-70
2021/12/05 11:43:29;;;;;;;3.50;0.90;;;15.50;61.20;;;;;;5103807;27;20024;-71
2021/12/05 11:45:59;;;;;;;3.30;0.82;;;15.90;59.50;;;;;;5095469;28;20036;-71
2021/12/05 11:48:30;;;;;;;2.90;0.82;;;16.10;59.00;;;;;;5115260;28;20027;-70
2021/12/05 11:50:57;;;;;;;4.68;0.70;;;16.20;57.00;;;;;;5110434;28;20038;-69
2021/12/05 11:53:35;;;;;;;3.80;1.02;;;15.60;56.30;;;;;;5097517;28;20071;-70
2021/12/05 11:56:00;;;;;;;4.45;1.15;;;15.10;59.00;;;;;;5112049;28;20023;-69
2021/12/05 11:58:26;;;;;;;3.45;0.88;;;15.30;59.20;;;;;;5111819;28;20103;-68
2021/12/05 12:00:52;;;;;;;2.83;0.85;;;14.70;58.10;;;;;;5114048;27;20078;-68
2021/12/05 12:03:30;;;;;;;2.67;0.77;;;13.90;59.00;;;;;;5114442;28;20066;-68
2021/12/05 12:05:56;;;;;;;2.40;0.57;;;13.00;58.90;;;;;;5116231;27;20076;-68
2021/12/05 12:08:22;;;;;;;1.90;0.52;;;12.40;60.60;;;;;;5116334;27;20028;-69
2021/12/05 12:10:57;;;;;;;1.42;0.50;;;12.00;62.10;;;;;;5097049;28;20077;-72
2021/12/05 12:13:35;;;;;;;0.85;0.35;;;11.60;62.40;;;;;;5093876;28;20027;-74
2021/12/05 12:16:07;;;;;;;2.55;0.50;;;11.30;63.40;;;;;;5121606;27;20043;-72
2021/12/05 12:18:37;;;;;;;1.75;0.43;;;11.20;64.50;;;;;;5115222;28;20535;-73
2021/12/05 12:21:25;;;;;;;1.88;0.60;;;11.20;65.40;;;;;;5113843;28;20039;-70
2021/12/05 12:23:55;;;;;;;2.70;0.70;;;11.30;66.10;;;;;;5111245;28;20042;-70
2021/12/05 12:26:22;;;;;;;1.08;0.55;;;11.60;66.70;;;;;;5111794;28;20031;-70
2021/12/05 12:28:48;;;;;;;2.25;0.57;;;12.70;67.00;;;;;;5099257;28;20148;-72
2021/12/05 12:31:20;;;;;;;1.77;0.57;;;13.00;64.00;;;;;;5111608;28;20032;-73
2021/12/05 12:33:56;;;;;;;3.80;0.77;;;13.30;64.90;;;;;;5113432;27;20012;-72
2021/12/05 12:36:36;;;;;;;2.78;0.70;;;13.30;62.70;;;;;;5114483;28;20085;-72
2021/12/05 12:39:15;;;;;;;1.75;0.50;;;13.00;62.40;;;;;;5112523;28;20506;-71
2021/12/05 12:41:43;;;;;;;2.80;0.73;;;12.80;63.00;;;;;;5111458;28;20530;-71
2021/12/05 12:44:09;;;;;;;2.08;0.50;;;12.50;63.40;;;;;;5097869;28;20020;-71
2021/12/05 12:46:49;;;;;;;4.95;0.70;;;12.60;65.00;;;;;;5110338;28;20032;-72
2021/12/05 12:49:14;;;;;;;2.15;0.80;;;13.60;66.00;;;;;;5111361;28;20020;-72
2021/12/05 12:51:52;;;;;;;2.00;0.63;;;14.40;63.10;;;;;;5112308;27;20020;-72
2021/12/05 12:54:23;;;;;;;3.63;1.00;;;14.00;62.00;;;;;;5113695;28;20071;-72
2021/12/05 12:57:07;;;;;;;2.67;0.80;;;13.20;61.10;;;;;;5110362;28;20027;-71
2021/12/05 12:59:36;;;;;;;3.65;0.90;;;12.40;62.60;;;;;;5097536;28;20122;-71
2021/12/05 13:10:29;;;;;;;2.35;0.40;;;10.60;68.10;;;;;;5098018;28;20027;-71
2021/12/05 13:12:59;;;;;;;1.67;0.50;;;10.30;70.20;;;;;;5111002;28;20032;-71
2021/12/05 13:15:37;;;;;;;1.90;0.50;;;10.10;71.30;;;;;;5113999;28;20020;-71
2021/12/05 13:18:05;;;;;;;3.67;0.50;;;9.90;71.70;;;;;;5099127;28;20039;-71
2021/12/05 13:20:42;;;;;;;3.17;0.50;;;9.90;71.90;;;;;;5111634;28;20404;-71
2021/12/05 13:23:19;;;;;;;3.10;0.60;;;9.90;72.50;;;;;;5110618;28;20038;-71
2021/12/05 13:26:10;;;;;;;1.83;0.70;;;9.90;72.90;;;;;;5110395;28;20047;-71
2021/12/05 13:28:45;;;;;;;1.63;0.50;;;9.90;72.90;;;;;;5007372;28;20121;-71
2021/12/05 13:31:30;;;;;;;2.95;0.40;;;9.90;73.10;;;;;;5030326;28;20117;-71
2021/12/05 13:34:19;;;;;;;2.95;0.68;;;9.90;73.50;;;;;;5014679;28;20143;-71
2021/12/05 13:36:55;;;;;;;3.10;0.55;;;9.90;73.50;;;;;;5019306;28;20475;-70
2021/12/05 13:39:41;;;;;;;3.35;1.13;;;9.80;73.80;;;;;;5014536;28;20059;-70
2021/12/05 13:42:07;;;;;;;1.92;0.40;;;9.80;73.30;;;;;;5030471;28;20069;-71
2021/12/05 13:44:57;;;;;;;3.13;0.60;;;9.90;73.40;;;;;;5021733;28;20069;-70
2021/12/05 13:47:29;;;;;;;2.63;0.60;;;9.90;72.90;;;;;;5001163;28;20486;-71
2021/12/05 13:49:56;;;;;;;2.83;0.50;;;9.90;73.40;;;;;;5021462;28;20113;-70
2021/12/05 13:52:36;;;;;;;3.15;0.65;;;10.00;73.30;;;;;;5026200;28;20037;-70
2021/12/05 13:55:33;;;;;;;3.22;0.70;;;10.10;73.40;;;;;;5030092;28;20716;-71
2021/12/05 13:58:17;;;;;;;2.63;0.70;;;10.40;74.40;;;;;;5029943;28;20441;-71
2021/12/05 14:00:49;;;;;;;2.50;0.50;;;10.60;73.30;;;;;;5028572;28;20529;-72
2021/12/05 14:03:53;;;;;;;3.35;0.85;;;10.70;73.40;;;;;;4998575;28;20352;-72
2021/12/05 14:06:33;;;;;;;4.05;0.80;;;10.90;73.60;;;;;;5098303;28;20549;-72
2021/12/05 14:09:18;;;;;;;4.05;0.85;;;11.10;72.90;;;;;;5099182;28;20123;-71
2021/12/05 14:12:02;;;;;;;5.15;0.65;;;11.20;72.30;;;;;;5096357;28;20019;-72
2021/12/05 14:14:35;;;;;;;5.68;0.95;;;11.20;71.90;;;;;;5107458;28;20023;-73
2021/12/05 14:17:05;;;;;;;4.82;0.77;;;11.10;71.60;;;;;;5107852;28;20015;-72
2021/12/05 14:19:34;;;;;;;3.88;0.70;;;11.10;71.80;;;;;;5104200;28;20110;-72
2021/12/05 14:22:03;;;;;;;2.05;0.55;;;11.20;72.20;;;;;;5093858;28;20103;-73
2021/12/05 14:24:33;;;;;;;4.18;0.82;;;11.30;72.10;;;;;;5109242;28;20047;-72
2021/12/05 14:27:03;;;;;;;2.47;0.70;;;11.40;71.70;;;;;;5110246;28;20039;-73
2021/12/05 14:29:33;;;;;;;3.35;0.90;;;11.40;71.70;;;;;;5108825;28;20026;-73
2021/12/05 14:32:07;;;;;;;3.80;1.00;;;11.60;71.80;;;;;;5108640;28;20030;-73
2021/12/05 14:34:34;;;;;;;5.40;0.90;;;11.60;71.50;;;;;;5108887;28;20387;-74
2021/12/05 14:37:04;;;;;;;1.73;0.50;;;11.60;71.30;;;;;;5109506;28;20484;-74
2021/12/05 14:39:31;;;;;;;2.83;0.70;;;11.50;70.90;;;;;;5108924;28;20564;-75
2021/12/05 14:42:00;;;;;;;2.88;0.90;;;11.30;70.80;;;;;;5111178;28;20031;-75
2021/12/05 14:44:28;;;;;;;4.35;0.88;;;11.30;71.60;;;;;;5108768;28;20019;-75
2021/12/05 14:47:00;;;;;;;3.78;0.85;;;11.30;71.60;;;;;;5108734;28;20019;-74
2021/12/05 14:49:29;;;;;;;5.93;0.90;;;11.20;71.60;;;;;;5090864;28;20475;-73
2021/12/05 14:51:55;;;;;;;2.38;0.68;;;11.00;71.50;;;;;;5109868;28;20047;-73
2021/12/05 14:54:28;;;;;;;2.75;0.57;;;11.00;72.30;;;;;;5111848;28;20043;-73
2021/12/05 14:56:55;;;;;;;3.47;0.70;;;11.00;72.20;;;;;;5108629;28;20027;-73
2021/12/05 14:59:21;;;;;;;2.30;0.60;;;10.90;71.30;;;;;;5108643;28;20054;-73
2021/12/05 15:01:54;;;;;;;3.47;0.60;;;10.90;71.40;;;;;;5108787;28;20617;-73
2021/12/05 15:04:28;;;;;;;4.20;0.90;;;10.80;71.10;;;;;;5108693;28;20016;-73
2021/12/05 15:06:54;;;;;;;2.28;0.47;;;10.70;71.00;;;;;;5109051;28;20507;-73
2021/12/05 15:09:33;;;;;;;3.00;0.57;;;10.70;71.00;;;;;;5097409;28;20020;-73
2021/12/05 15:12:02;;;;;;;2.72;0.73;;;10.60;71.30;;;;;;5109757;28;20089;-73
2021/12/05 15:14:29;;;;;;;2.17;0.55;;;10.70;71.20;;;;;;5108193;28;20015;-73
2021/12/05 15:16:59;;;;;;;5.38;0.90;;;10.70;71.20;;;;;;5108243;28;20487;-73
2021/12/05 15:19:25;;;;;;;4.30;0.80;;;10.70;71.00;;;;;;5108680;28;20015;-74
2021/12/05 15:21:54;;;;;;;4.13;0.68;;;10.70;71.00;;;;;;5092773;28;20088;-73
2021/12/05 15:24:22;;;;;;;3.80;0.90;;;10.70;71.10;;;;;;5111223;28;20042;-73
2021/12/05 15:26:49;;;;;;;4.50;1.05;;;10.60;70.80;;;;;;5108009;28;20069;-73
2021/12/05 15:29:15;;;;;;;5.03;0.88;;;10.60;71.10;;;;;;5108305;28;20023;-73
2021/12/05 15:31:42;;;;;;;4.20;0.82;;;10.60;71.20;;;;;;5111595;28;20039;-73
2021/12/05 15:34:29;;;;;;;2.75;0.60;;;10.70;71.10;;;;;;5126709;28;20401;-73
2021/12/05 15:36:57;;;;;;;2.53;0.57;;;10.60;70.50;;;;;;5108215;28;20023;-74
2021/12/05 15:39:26;;;;;;;3.47;1.05;;;10.60;70.70;;;;;;5122950;28;20020;-74
2021/12/05 15:41:54;;;;;;;4.22;0.90;;;10.60;70.80;;;;;;5108697;28;20066;-74
2021/12/05 15:44:30;;;;;;;3.55;0.80;;;10.60;71.00;;;;;;5108381;28;20022;-74
2021/12/05 15:47:00;;;;;;;2.72;0.73;;;10.60;70.60;;;;;;5110935;28;20063;-74
2021/12/05 15:49:28;;;;;;;4.10;0.77;;;10.60;70.50;;;;;;5120979;28;20024;-74
2021/12/05 15:52:00;;;;;;;4.18;0.93;;;10.50;70.40;;;;;;5108729;28;20064;-74
2021/12/05 15:54:26;;;;;;;4.32;0.80;;;10.60;70.70;;;;;;5111195;28;20122;-74
2021/12/05 15:57:08;;;;;;;2.03;0.60;;;10.50;70.10;;;;;;5108035;28;20448;-74
2021/12/05 15:59:39;;;;;;;4.10;0.57;;;10.40;70.00;;;;;;5094025;28;20020;-74
2021/12/05 16:02:09;;;;;;;2.97;0.68;;;10.30;70.10;;;;;;5108692;28;20032;-73
2021/12/05 16:04:35;;;;;;;6.28;0.90;;;10.30;71.20;;;;;;5093965;28;20476;-73
2021/12/05 16:07:01;;;;;;;2.28;0.57;;;10.30;70.90;;;;;;5107506;28;20019;-74
2021/12/05 16:09:27;;;;;;;2.33;0.70;;;10.30;70.80;;;;;;5136002;27;20471;-73
2021/12/05 16:12:13;;;;;;;3.50;0.98;;;10.30;71.20;;;;;;5109526;28;20024;-74
2021/12/05 16:14:42;;;;;;;4.22;0.73;;;10.30;71.20;;;;;;5107574;28;20022;-73
2021/12/05 16:17:26;;;;;;;4.88;0.60;;;10.30;71.40;;;;;;5107998;28;20460;-73
2021/12/05 16:20:16;;;;;;;3.17;0.77;;;10.20;71.40;;;;;;5107159;28;20023;-73
2021/12/05 16:22:54;;;;;;;2.75;0.60;;;10.10;72.00;;;;;;5110772;28;20557;-74
2021/12/05 16:25:20;;;;;;;1.98;0.45;;;10.00;72.60;;;;;;5110784;28;20027;-78
2021/12/05 16:27:50;;;;;;;3.17;0.52;;;9.90;73.70;;;;;;5108306;27;20020;-71
2021/12/05 16:30:27;;;;;;;3.55;0.85;;;9.90;73.10;;;;;;5109301;28;20084;-71
2021/12/05 16:32:53;;;;;;;1.67;0.55;;;9.90;73.40;;;;;;5109984;28;20032;-72
2021/12/05 16:35:34;;;;;;;3.45;1.00;;;9.80;73.30;;;;;;5102597;28;20070;-70
2021/12/05 16:38:02;;;;;;;5.53;0.90;;;9.80;73.60;;;;;;5098655;27;20023;-75
2021/12/05 16:40:56;;;;;;;3.00;0.70;;;9.80;73.50;;;;;;5119669;27;20019;-73
2021/12/05 16:43:22;;;;;;;;;;;9.80;73.90;;;;;;5097187;28;20080;-71
2021/12/05 16:45:47;;;;;;;3.22;1.02;;;9.90;73.80;;;;;;5111602;28;19912;-71
2021/12/05 16:48:17;;;;;;;2.83;1.00;;;9.90;74.00;;;;;;5111414;28;20507;-70
2021/12/05 16:50:43;;;;;;;3.20;1.02;;;9.90;73.90;;;;;;5110287;28;20028;-76
2021/12/05 16:53:11;;;;;;;2.67;0.93;;;9.90;73.80;;;;;;5110658;28;20471;-74
2021/12/05 16:55:41;;;;;;;5.82;1.20;;;9.80;73.60;;;;;;5110585;28;20083;-77
2021/12/05 16:58:14;;;;;;;5.10;1.33;;;9.80;73.50;;;;;;5110385;28;20115;-75
2021/12/05 17:00:50;;;;;;;7.00;1.85;;;9.70;73.70;;;;;;5113727;27;20027;-74
2021/12/05 17:03:19;;;;;;;5.20;1.73;;;9.70;73.80;;;;;;5103308;27;20051;-77
2021/12/05 17:05:48;;;;;;;4.63;1.45;;;9.70;73.80;;;;;;5109384;27;20024;-74
2021/12/05 17:08:44;;;;;;;5.43;1.35;;;9.80;73.80;;;;;;5109231;28;20027;-73
2021/12/05 17:11:15;;;;;;;4.20;1.10;;;9.70;73.50;;;;;;5106401;27;20043;-73
2021/12/05 17:13:50;;;;;;;3.22;1.13;;;9.80;73.80;;;;;;5109176;28;20023;-75
2021/12/05 17:16:28;;;;;;;6.53;1.52;;;9.80;73.60;;;;;;5112573;27;20016;-74
2021/12/05 17:18:58;;;;;;;3.08;1.00;;;9.70;73.50;;;;;;5111374;27;20073;-72
2021/12/05 17:21:27;;;;;;;4.88;1.77;;;9.70;73.60;;;;;;5113373;27;20035;-72
2021/12/05 17:23:54;;;;;;;5.63;1.58;;;9.80;73.50;;;;;;5110138;27;20122;-73
2021/12/05 17:26:37;;;;;;;5.68;1.60;;;9.80;73.30;;;;;;5099433;27;20106;-72
2021/12/05 17:29:07;;;;;;;7.53;3.13;;;9.70;73.20;;;;;;5104531;27;20051;-72
2021/12/05 17:31:35;;;;;;;4.88;1.55;;;9.80;73.10;;;;;;5128586;27;20028;-72
2021/12/05 17:34:08;;;;;;;6.20;1.70;;;9.70;72.80;;;;;;5103926;27;20046;-72
2021/12/05 17:36:43;;;;;;;5.00;1.55;;;9.70;72.50;;;;;;5112520;27;20016;-72
2021/12/05 17:39:08;;;;;;;5.80;1.77;;;9.70;72.50;;;;;;5118207;27;20049;-72
2021/12/05 17:41:34;;;;;;;4.78;1.70;;;9.60;72.70;;;;;;5108959;27;20027;-73
2021/12/05 17:44:03;;;;;;;3.80;1.02;;;9.70;72.70;;;;;;5108276;28;20106;-76
2021/12/05 17:46:30;;;;;;;4.40;1.35;;;9.60;72.50;;;;;;5102203;28;20077;-73
2021/12/05 17:48:56;;;;;;;4.57;1.27;;;9.60;72.80;;;;;;5094927;28;20024;-74
2021/12/05 17:51:27;;;;;;;2.55;0.93;;;9.70;72.80;;;;;;5132870;27;20159;-74
2021/12/05 17:53:55;;;;;;;3.25;1.40;;;9.60;72.80;;;;;;5108254;28;20114;-73
2021/12/05 17:56:38;;;;;;;2.83;0.98;;;9.70;72.80;;;;;;5108682;28;20115;-74
2021/12/05 17:59:13;;;;;;;4.20;1.00;;;9.70;72.90;;;;;;5108471;28;20015;-72
2021/12/05 18:04:26;;;;;;;4.22;1.08;;;9.70;72.80;;;;;;5109288;28;20033;-73
2021/12/05 18:06:53;;;;;;;3.63;0.80;;;9.70;72.70;;;;;;5097922;28;20020;-73
2021/12/05 18:09:19;;;;;;;3.40;1.08;;;9.70;72.60;;;;;;5111540;28;20099;-74
2021/12/05 18:11:45;;;;;;;3.45;0.93;;;9.70;72.60;;;;;;5108079;28;20111;-74
2021/12/05 18:14:11;;;;;;;3.05;0.90;;;9.60;72.70;;;;;;5108478;28;20012;-73
2021/12/05 18:16:37;;;;;;;4.05;1.00;;;9.60;72.90;;;;;;5107060;28;20604;-73
2021/12/05 18:19:10;;;;;;;4.30;1.25;;;9.60;73.10;;;;;;5106152;28;20549;-72
2021/12/05 18:21:37;;;;;;;3.65;0.80;;;9.60;73.20;;;;;;5111339;28;20444;-73
2021/12/05 18:24:11;;;;;;;6.22;1.17;;;9.60;73.40;;;;;;5104451;28;20032;-71
2021/12/05 18:26:37;;;;;;;2.67;0.82;;;9.60;73.80;;;;;;5099303;28;20042;-72
2021/12/05 18:29:07;;;;;;;4.57;0.90;;;9.60;74.20;;;;;;5108514;28;20036;-73
2021/12/05 18:31:35;;;;;;;3.67;0.90;;;9.60;74.40;;;;;;5102017;28;20020;-70
2021/12/05 18:34:09;;;;;;;3.63;1.17;;;9.60;74.20;;;;;;5093885;28;20552;-71
2021/12/05 18:36:38;;;;;;;3.67;0.70;;;9.60;74.50;;;;;;5108571;28;20020;-69
2021/12/05 18:39:10;;;;;;;2.53;0.90;;;9.60;74.40;;;;;;5107350;28;20104;-69
2021/12/05 18:41:37;;;;;;;2.38;0.60;;;9.60;74.60;;;;;;5100117;27;20057;-69
2021/12/05 18:44:08;;;;;;;2.45;0.65;;;9.60;74.30;;;;;;5115035;27;20023;-69
2021/12/05 18:46:34;;;;;;;1.58;0.68;;;9.70;74.50;;;;;;5109691;28;20126;-69
2021/12/05 18:48:59;;;;;;;2.72;0.82;;;9.70;74.40;;;;;;5116562;27;20111;-69
2021/12/05 18:51:25;;;;;;;1.70;0.68;;;9.60;74.30;;;;;;5111268;28;20039;-69
2021/12/05 18:53:52;;;;;;;3.38;0.70;;;9.70;74.30;;;;;;5111723;27;20051;-71
2021/12/05 18:56:18;;;;;;;4.53;1.02;;;9.60;74.00;;;;;;5113508;27;20034;-70
2021/12/05 18:58:44;;;;;;;2.05;0.85;;;9.70;74.40;;;;;;5108036;28;20023;-69
2021/12/05 19:06:49;;;;;;;6.68;1.00;;;9.60;74.60;;;;;;5116614;27;20023;-70
2021/12/05 19:09:25;;;;;;;3.25;0.88;;;9.60;74.30;;;;;;5109759;28;20110;-68